sensor_id;sensor_type;location;lat;lon;timestamp;P1;durP1;ratioP1;P2;durP2;ratioP2
44000;SDS011;29660;42.892;24.710;2024-01-27T00:04:59;46.35;;;28.77;;
44000;SDS011;29660;42.892;24.710;2024-01-27T00:10:21;40.40;;;26.88;;
44000;SDS011;29660;42.892;24.710;2024-01-27T00:15:44;38.55;;;24.52;;
44000;SDS011;29660;42.892;24.710;2024-01-27T00:21:06;48.17;;;28.52;;
44000;SDS011;29660;42.892;24.710;2024-01-27T00:26:29;58.80;;;31.00;;
44000;SDS011;29660;42.892;24.710;2024-01-27T00:31:51;41.55;;;23.27;;
44000;SDS011;29660;42.892;24.710;2024-01-27T00:37:13;40.65;;;21.23;;
44000;SDS011;29660;42.892;24.710;2024-01-27T00:42:35;32.35;;;18.92;;
44000;SDS011;29660;42.892;24.710;2024-01-27T00:47:58;45.22;;;28.92;;
44000;SDS011;29660;42.892;24.710;2024-01-27T00:53:20;26.10;;;15.70;;
44000;SDS011;29660;42.892;24.710;2024-01-27T00:58:42;34.08;;;20.00;;
44000;SDS011;29660;42.892;24.710;2024-01-27T01:04:04;28.98;;;18.33;;
44000;SDS011;29660;42.892;24.710;2024-01-27T01:09:26;25.85;;;14.73;;
44000;SDS011;29660;42.892;24.710;2024-01-27T01:14:48;33.45;;;20.92;;
44000;SDS011;29660;42.892;24.710;2024-01-27T01:20:11;26.83;;;16.48;;
44000;SDS011;29660;42.892;24.710;2024-01-27T01:25:33;28.00;;;16.75;;
44000;SDS011;29660;42.892;24.710;2024-01-27T01:30:55;21.88;;;14.57;;
44000;SDS011;29660;42.892;24.710;2024-01-27T01:36:17;17.23;;;10.18;;
44000;SDS011;29660;42.892;24.710;2024-01-27T01:41:40;35.47;;;24.40;;
44000;SDS011;29660;42.892;24.710;2024-01-27T01:47:02;30.23;;;16.20;;
44000;SDS011;29660;42.892;24.710;2024-01-27T01:52:26;21.90;;;13.23;;
44000;SDS011;29660;42.892;24.710;2024-01-27T01:57:48;17.52;;;10.13;;
44000;SDS011;29660;42.892;24.710;2024-01-27T02:03:13;15.18;;;7.82;;
44000;SDS011;29660;42.892;24.710;2024-01-27T02:08:36;21.35;;;12.95;;
44000;SDS011;29660;42.892;24.710;2024-01-27T02:13:58;24.45;;;17.48;;
44000;SDS011;29660;42.892;24.710;2024-01-27T02:19:20;23.52;;;13.55;;
44000;SDS011;29660;42.892;24.710;2024-01-27T02:24:42;20.38;;;12.00;;
44000;SDS011;29660;42.892;24.710;2024-01-27T02:30:04;16.55;;;10.50;;
44000;SDS011;29660;42.892;24.710;2024-01-27T02:35:27;21.15;;;12.15;;
44000;SDS011;29660;42.892;24.710;2024-01-27T02:40:49;17.60;;;10.90;;
44000;SDS011;29660;42.892;24.710;2024-01-27T02:46:12;14.90;;;9.20;;
44000;SDS011;29660;42.892;24.710;2024-01-27T02:51:35;19.08;;;10.82;;
44000;SDS011;29660;42.892;24.710;2024-01-27T02:56:57;21.40;;;13.30;;
44000;SDS011;29660;42.892;24.710;2024-01-27T03:02:19;20.10;;;12.13;;
44000;SDS011;29660;42.892;24.710;2024-01-27T03:07:41;30.20;;;16.98;;
44000;SDS011;29660;42.892;24.710;2024-01-27T03:13:03;23.05;;;16.25;;
44000;SDS011;29660;42.892;24.710;2024-01-27T03:18:26;36.00;;;23.10;;
44000;SDS011;29660;42.892;24.710;2024-01-27T03:23:48;20.30;;;14.85;;
44000;SDS011;29660;42.892;24.710;2024-01-27T03:29:10;22.92;;;15.45;;
44000;SDS011;29660;42.892;24.710;2024-01-27T03:34:32;25.42;;;14.55;;
44000;SDS011;29660;42.892;24.710;2024-01-27T03:39:55;43.95;;;26.33;;
44000;SDS011;29660;42.892;24.710;2024-01-27T03:45:17;36.75;;;22.23;;
44000;SDS011;29660;42.892;24.710;2024-01-27T03:50:39;40.63;;;24.88;;
44000;SDS011;29660;42.892;24.710;2024-01-27T03:56:01;39.75;;;24.55;;
44000;SDS011;29660;42.892;24.710;2024-01-27T04:01:25;41.28;;;24.95;;
44000;SDS011;29660;42.892;24.710;2024-01-27T04:06:48;33.92;;;20.10;;
44000;SDS011;29660;42.892;24.710;2024-01-27T04:12:10;23.30;;;16.20;;
44000;SDS011;29660;42.892;24.710;2024-01-27T04:17:32;100.13;;;67.43;;
44000;SDS011;29660;42.892;24.710;2024-01-27T04:22:54;34.28;;;22.85;;
44000;SDS011;29660;42.892;24.710;2024-01-27T04:28:16;40.88;;;25.00;;
44000;SDS011;29660;42.892;24.710;2024-01-27T04:33:38;30.17;;;19.65;;
44000;SDS011;29660;42.892;24.710;2024-01-27T04:39:01;38.72;;;23.52;;
44000;SDS011;29660;42.892;24.710;2024-01-27T04:44:23;55.20;;;31.58;;
44000;SDS011;29660;42.892;24.710;2024-01-27T04:49:45;51.53;;;30.67;;
44000;SDS011;29660;42.892;24.710;2024-01-27T04:55:07;49.80;;;31.23;;
44000;SDS011;29660;42.892;24.710;2024-01-27T05:00:29;52.83;;;32.90;;
44000;SDS011;29660;42.892;24.710;2024-01-27T05:05:52;61.00;;;36.83;;
44000;SDS011;29660;42.892;24.710;2024-01-27T05:11:15;61.28;;;35.83;;
44000;SDS011;29660;42.892;24.710;2024-01-27T05:16:46;42.63;;;26.10;;
44000;SDS011;29660;42.892;24.710;2024-01-27T05:22:08;50.50;;;31.48;;
44000;SDS011;29660;42.892;24.710;2024-01-27T05:27:31;57.55;;;36.13;;
44000;SDS011;29660;42.892;24.710;2024-01-27T05:32:53;55.63;;;33.35;;
44000;SDS011;29660;42.892;24.710;2024-01-27T05:38:15;51.95;;;34.08;;
44000;SDS011;29660;42.892;24.710;2024-01-27T05:43:38;64.10;;;43.63;;
44000;SDS011;29660;42.892;24.710;2024-01-27T05:49:00;76.80;;;48.70;;
44000;SDS011;29660;42.892;24.710;2024-01-27T05:54:25;107.45;;;68.95;;
44000;SDS011;29660;42.892;24.710;2024-01-27T05:59:48;118.35;;;75.25;;
44000;SDS011;29660;42.892;24.710;2024-01-27T06:05:10;113.40;;;77.32;;
44000;SDS011;29660;42.892;24.710;2024-01-27T06:10:32;92.93;;;63.80;;
44000;SDS011;29660;42.892;24.710;2024-01-27T06:15:54;64.82;;;48.22;;
44000;SDS011;29660;42.892;24.710;2024-01-27T06:21:16;85.72;;;60.35;;
44000;SDS011;29660;42.892;24.710;2024-01-27T06:26:38;64.93;;;46.65;;
44000;SDS011;29660;42.892;24.710;2024-01-27T06:32:01;78.03;;;53.35;;
44000;SDS011;29660;42.892;24.710;2024-01-27T06:37:23;88.53;;;58.38;;
44000;SDS011;29660;42.892;24.710;2024-01-27T06:42:45;101.50;;;71.20;;
44000;SDS011;29660;42.892;24.710;2024-01-27T06:48:07;241.07;;;148.93;;
44000;SDS011;29660;42.892;24.710;2024-01-27T06:53:29;182.73;;;119.40;;
44000;SDS011;29660;42.892;24.710;2024-01-27T06:58:51;383.20;;;237.82;;
44000;SDS011;29660;42.892;24.710;2024-01-27T07:04:14;111.70;;;84.03;;
44000;SDS011;29660;42.892;24.710;2024-01-27T07:09:37;132.73;;;91.55;;
44000;SDS011;29660;42.892;24.710;2024-01-27T07:14:59;152.18;;;109.93;;
44000;SDS011;29660;42.892;24.710;2024-01-27T07:20:22;131.43;;;104.55;;
44000;SDS011;29660;42.892;24.710;2024-01-27T07:25:46;132.75;;;105.45;;
44000;SDS011;29660;42.892;24.710;2024-01-27T07:31:08;119.40;;;87.80;;
44000;SDS011;29660;42.892;24.710;2024-01-27T07:36:30;83.80;;;55.05;;
44000;SDS011;29660;42.892;24.710;2024-01-27T07:41:54;102.03;;;66.05;;
44000;SDS011;29660;42.892;24.710;2024-01-27T07:47:16;94.10;;;66.07;;
44000;SDS011;29660;42.892;24.710;2024-01-27T07:52:38;96.30;;;73.18;;
44000;SDS011;29660;42.892;24.710;2024-01-27T07:58:01;91.68;;;70.82;;
44000;SDS011;29660;42.892;24.710;2024-01-27T08:03:24;219.95;;;148.02;;
44000;SDS011;29660;42.892;24.710;2024-01-27T08:08:47;145.98;;;110.50;;
44000;SDS011;29660;42.892;24.710;2024-01-27T08:14:10;109.13;;;85.85;;
44000;SDS011;29660;42.892;24.710;2024-01-27T08:19:32;89.40;;;68.70;;
44000;SDS011;29660;42.892;24.710;2024-01-27T08:24:55;8.20;;;6.22;;
44000;SDS011;29660;42.892;24.710;2024-01-27T08:30:17;4.13;;;3.10;;
44000;SDS011;29660;42.892;24.710;2024-01-27T08:35:39;10.88;;;6.82;;
44000;SDS011;29660;42.892;24.710;2024-01-27T08:41:02;5.85;;;4.47;;
44000;SDS011;29660;42.892;24.710;2024-01-27T08:46:24;9.23;;;6.63;;
44000;SDS011;29660;42.892;24.710;2024-01-27T08:51:46;10.35;;;7.65;;
44000;SDS011;29660;42.892;24.710;2024-01-27T08:57:08;19.85;;;15.35;;
44000;SDS011;29660;42.892;24.710;2024-01-27T09:02:30;15.43;;;11.88;;
44000;SDS011;29660;42.892;24.710;2024-01-27T09:07:54;58.70;;;36.80;;
44000;SDS011;29660;42.892;24.710;2024-01-27T09:13:16;29.98;;;21.65;;
44000;SDS011;29660;42.892;24.710;2024-01-27T09:18:38;22.40;;;14.77;;
44000;SDS011;29660;42.892;24.710;2024-01-27T09:24:01;14.82;;;12.05;;
44000;SDS011;29660;42.892;24.710;2024-01-27T09:29:24;4.78;;;3.22;;
44000;SDS011;29660;42.892;24.710;2024-01-27T09:34:46;16.15;;;12.95;;
44000;SDS011;29660;42.892;24.710;2024-01-27T09:40:08;5.88;;;4.53;;
44000;SDS011;29660;42.892;24.710;2024-01-27T09:45:31;11.52;;;8.25;;
44000;SDS011;29660;42.892;24.710;2024-01-27T09:50:54;4.35;;;3.10;;
44000;SDS011;29660;42.892;24.710;2024-01-27T09:56:18;2.83;;;2.10;;
44000;SDS011;29660;42.892;24.710;2024-01-27T10:01:40;7.47;;;5.85;;
44000;SDS011;29660;42.892;24.710;2024-01-27T10:07:03;7.30;;;5.50;;
44000;SDS011;29660;42.892;24.710;2024-01-27T10:12:26;7.75;;;5.97;;
44000;SDS011;29660;42.892;24.710;2024-01-27T10:17:50;7.30;;;5.05;;
44000;SDS011;29660;42.892;24.710;2024-01-27T10:23:13;4.22;;;3.08;;
44000;SDS011;29660;42.892;24.710;2024-01-27T10:28:35;4.80;;;3.63;;
44000;SDS011;29660;42.892;24.710;2024-01-27T10:33:57;3.53;;;2.25;;
44000;SDS011;29660;42.892;24.710;2024-01-27T10:39:20;3.20;;;2.50;;
44000;SDS011;29660;42.892;24.710;2024-01-27T10:44:43;7.97;;;3.78;;
44000;SDS011;29660;42.892;24.710;2024-01-27T10:50:08;14.68;;;9.30;;
44000;SDS011;29660;42.892;24.710;2024-01-27T10:55:33;9.85;;;6.00;;
44000;SDS011;29660;42.892;24.710;2024-01-27T11:00:57;5.07;;;3.85;;
44000;SDS011;29660;42.892;24.710;2024-01-27T11:06:22;10.73;;;6.03;;
44000;SDS011;29660;42.892;24.710;2024-01-27T11:11:45;3.40;;;2.30;;
44000;SDS011;29660;42.892;24.710;2024-01-27T11:17:08;4.10;;;3.08;;
44000;SDS011;29660;42.892;24.710;2024-01-27T11:22:31;16.08;;;9.25;;
44000;SDS011;29660;42.892;24.710;2024-01-27T11:27:54;4.10;;;2.65;;
44000;SDS011;29660;42.892;24.710;2024-01-27T11:33:16;4.90;;;2.95;;
44000;SDS011;29660;42.892;24.710;2024-01-27T11:38:39;1.75;;;1.25;;
44000;SDS011;29660;42.892;24.710;2024-01-27T11:44:03;7.68;;;5.53;;
44000;SDS011;29660;42.892;24.710;2024-01-27T11:49:25;6.45;;;5.85;;
44000;SDS011;29660;42.892;24.710;2024-01-27T11:54:55;10.38;;;8.63;;
44000;SDS011;29660;42.892;24.710;2024-01-27T12:00:17;5.10;;;3.65;;
44000;SDS011;29660;42.892;24.710;2024-01-27T12:05:40;5.63;;;4.60;;
44000;SDS011;29660;42.892;24.710;2024-01-27T12:11:02;3.53;;;2.50;;
44000;SDS011;29660;42.892;24.710;2024-01-27T12:16:24;8.32;;;6.30;;
44000;SDS011;29660;42.892;24.710;2024-01-27T12:21:47;3.17;;;2.00;;
44000;SDS011;29660;42.892;24.710;2024-01-27T12:27:10;11.60;;;7.78;;
44000;SDS011;29660;42.892;24.710;2024-01-27T12:32:32;9.45;;;7.55;;
44000;SDS011;29660;42.892;24.710;2024-01-27T12:37:54;1.58;;;1.33;;
44000;SDS011;29660;42.892;24.710;2024-01-27T12:43:16;4.60;;;3.40;;
44000;SDS011;29660;42.892;24.710;2024-01-27T12:48:38;11.02;;;6.80;;
44000;SDS011;29660;42.892;24.710;2024-01-27T12:54:00;5.00;;;3.78;;
44000;SDS011;29660;42.892;24.710;2024-01-27T12:59:23;7.15;;;6.22;;
44000;SDS011;29660;42.892;24.710;2024-01-27T13:04:45;7.97;;;6.28;;
44000;SDS011;29660;42.892;24.710;2024-01-27T13:10:09;3.75;;;2.38;;
44000;SDS011;29660;42.892;24.710;2024-01-27T13:15:31;10.40;;;8.23;;
44000;SDS011;29660;42.892;24.710;2024-01-27T13:20:53;21.52;;;16.10;;
44000;SDS011;29660;42.892;24.710;2024-01-27T13:26:15;12.35;;;6.70;;
44000;SDS011;29660;42.892;24.710;2024-01-27T13:31:39;12.65;;;8.38;;
44000;SDS011;29660;42.892;24.710;2024-01-27T13:37:01;25.88;;;14.18;;
44000;SDS011;29660;42.892;24.710;2024-01-27T13:42:24;5.30;;;3.83;;
44000;SDS011;29660;42.892;24.710;2024-01-27T13:47:47;6.40;;;4.97;;
44000;SDS011;29660;42.892;24.710;2024-01-27T13:53:09;19.27;;;12.55;;
44000;SDS011;29660;42.892;24.710;2024-01-27T13:58:32;28.40;;;17.52;;
44000;SDS011;29660;42.892;24.710;2024-01-27T14:03:54;6.65;;;4.82;;
44000;SDS011;29660;42.892;24.710;2024-01-27T14:09:16;10.05;;;7.00;;
44000;SDS011;29660;42.892;24.710;2024-01-27T14:14:40;7.28;;;4.68;;
44000;SDS011;29660;42.892;24.710;2024-01-27T14:20:03;14.00;;;8.25;;
44000;SDS011;29660;42.892;24.710;2024-01-27T14:25:26;11.75;;;8.02;;
44000;SDS011;29660;42.892;24.710;2024-01-27T14:30:48;8.90;;;7.10;;
44000;SDS011;29660;42.892;24.710;2024-01-27T14:36:10;6.13;;;4.28;;
44000;SDS011;29660;42.892;24.710;2024-01-27T14:41:33;8.73;;;5.50;;
44000;SDS011;29660;42.892;24.710;2024-01-27T14:46:55;9.25;;;7.05;;
44000;SDS011;29660;42.892;24.710;2024-01-27T14:52:17;4.00;;;2.95;;
44000;SDS011;29660;42.892;24.710;2024-01-27T14:57:39;6.68;;;4.32;;
44000;SDS011;29660;42.892;24.710;2024-01-27T15:03:02;8.68;;;5.75;;
44000;SDS011;29660;42.892;24.710;2024-01-27T15:08:25;9.55;;;6.72;;
44000;SDS011;29660;42.892;24.710;2024-01-27T15:13:48;9.77;;;7.03;;
44000;SDS011;29660;42.892;24.710;2024-01-27T15:19:10;3.08;;;2.22;;
44000;SDS011;29660;42.892;24.710;2024-01-27T15:24:32;10.70;;;6.60;;
44000;SDS011;29660;42.892;24.710;2024-01-27T15:29:56;18.90;;;12.85;;
44000;SDS011;29660;42.892;24.710;2024-01-27T15:35:19;6.20;;;4.45;;
44000;SDS011;29660;42.892;24.710;2024-01-27T15:40:41;9.27;;;5.93;;
44000;SDS011;29660;42.892;24.710;2024-01-27T15:46:03;9.48;;;5.90;;
44000;SDS011;29660;42.892;24.710;2024-01-27T15:51:28;9.60;;;6.38;;
44000;SDS011;29660;42.892;24.710;2024-01-27T15:56:51;16.10;;;12.25;;
44000;SDS011;29660;42.892;24.710;2024-01-27T16:02:13;7.18;;;5.93;;
44000;SDS011;29660;42.892;24.710;2024-01-27T16:07:35;8.38;;;5.70;;
44000;SDS011;29660;42.892;24.710;2024-01-27T16:12:57;13.02;;;7.28;;
44000;SDS011;29660;42.892;24.710;2024-01-27T16:18:20;9.82;;;6.38;;
44000;SDS011;29660;42.892;24.710;2024-01-27T16:23:42;5.65;;;2.55;;
44000;SDS011;29660;42.892;24.710;2024-01-27T16:29:04;15.57;;;10.18;;
44000;SDS011;29660;42.892;24.710;2024-01-27T16:34:27;15.77;;;11.32;;
44000;SDS011;29660;42.892;24.710;2024-01-27T16:39:49;18.60;;;12.88;;
44000;SDS011;29660;42.892;24.710;2024-01-27T16:45:11;22.23;;;14.02;;
44000;SDS011;29660;42.892;24.710;2024-01-27T16:50:34;10.05;;;5.47;;
44000;SDS011;29660;42.892;24.710;2024-01-27T16:55:56;8.43;;;5.25;;
44000;SDS011;29660;42.892;24.710;2024-01-27T17:01:19;11.52;;;5.47;;
44000;SDS011;29660;42.892;24.710;2024-01-27T17:06:41;16.02;;;10.75;;
44000;SDS011;29660;42.892;24.710;2024-01-27T17:12:03;21.05;;;15.85;;
44000;SDS011;29660;42.892;24.710;2024-01-27T17:17:27;18.30;;;12.07;;
44000;SDS011;29660;42.892;24.710;2024-01-27T17:22:50;17.70;;;13.23;;
44000;SDS011;29660;42.892;24.710;2024-01-27T17:28:12;37.28;;;29.20;;
44000;SDS011;29660;42.892;24.710;2024-01-27T17:33:34;14.60;;;7.47;;
44000;SDS011;29660;42.892;24.710;2024-01-27T17:38:57;57.42;;;39.55;;
44000;SDS011;29660;42.892;24.710;2024-01-27T17:44:19;8.95;;;5.22;;
44000;SDS011;29660;42.892;24.710;2024-01-27T17:49:41;8.05;;;4.85;;
44000;SDS011;29660;42.892;24.710;2024-01-27T17:55:03;7.85;;;4.93;;
44000;SDS011;29660;42.892;24.710;2024-01-27T18:00:27;5.97;;;3.92;;
44000;SDS011;29660;42.892;24.710;2024-01-27T18:05:49;12.98;;;8.38;;
44000;SDS011;29660;42.892;24.710;2024-01-27T18:11:12;38.03;;;21.85;;
44000;SDS011;29660;42.892;24.710;2024-01-27T18:16:35;49.20;;;29.45;;
44000;SDS011;29660;42.892;24.710;2024-01-27T18:21:57;13.57;;;6.47;;
44000;SDS011;29660;42.892;24.710;2024-01-27T18:27:24;12.85;;;7.55;;
44000;SDS011;29660;42.892;24.710;2024-01-27T18:32:46;11.25;;;6.28;;
44000;SDS011;29660;42.892;24.710;2024-01-27T18:38:09;14.32;;;8.23;;
44000;SDS011;29660;42.892;24.710;2024-01-27T18:43:31;18.35;;;10.98;;
44000;SDS011;29660;42.892;24.710;2024-01-27T18:48:53;10.20;;;4.60;;
44000;SDS011;29660;42.892;24.710;2024-01-27T18:54:15;11.63;;;7.15;;
44000;SDS011;29660;42.892;24.710;2024-01-27T18:59:42;6.03;;;3.92;;
44000;SDS011;29660;42.892;24.710;2024-01-27T19:05:05;10.80;;;6.63;;
44000;SDS011;29660;42.892;24.710;2024-01-27T19:10:29;12.65;;;6.30;;
44000;SDS011;29660;42.892;24.710;2024-01-27T19:15:51;10.40;;;4.70;;
44000;SDS011;29660;42.892;24.710;2024-01-27T19:21:17;16.13;;;7.63;;
44000;SDS011;29660;42.892;24.710;2024-01-27T19:26:39;15.00;;;5.78;;
44000;SDS011;29660;42.892;24.710;2024-01-27T19:32:03;23.58;;;14.30;;
44000;SDS011;29660;42.892;24.710;2024-01-27T19:37:27;19.25;;;8.30;;
44000;SDS011;29660;42.892;24.710;2024-01-27T19:42:49;30.92;;;14.70;;
44000;SDS011;29660;42.892;24.710;2024-01-27T19:48:12;12.48;;;6.68;;
44000;SDS011;29660;42.892;24.710;2024-01-27T19:53:34;12.88;;;7.07;;
44000;SDS011;29660;42.892;24.710;2024-01-27T19:58:56;15.07;;;6.95;;
44000;SDS011;29660;42.892;24.710;2024-01-27T20:04:18;11.10;;;5.78;;
44000;SDS011;29660;42.892;24.710;2024-01-27T20:09:40;15.65;;;6.38;;
44000;SDS011;29660;42.892;24.710;2024-01-27T20:15:03;10.25;;;4.88;;
44000;SDS011;29660;42.892;24.710;2024-01-27T20:20:26;10.63;;;5.68;;
44000;SDS011;29660;42.892;24.710;2024-01-27T20:25:48;19.00;;;9.55;;
44000;SDS011;29660;42.892;24.710;2024-01-27T20:31:13;8.40;;;5.75;;
44000;SDS011;29660;42.892;24.710;2024-01-27T20:36:35;15.27;;;9.13;;
44000;SDS011;29660;42.892;24.710;2024-01-27T20:41:58;40.05;;;23.83;;
44000;SDS011;29660;42.892;24.710;2024-01-27T20:47:21;29.45;;;16.48;;
44000;SDS011;29660;42.892;24.710;2024-01-27T20:52:43;50.47;;;31.73;;
44000;SDS011;29660;42.892;24.710;2024-01-27T20:58:05;32.58;;;20.08;;
44000;SDS011;29660;42.892;24.710;2024-01-27T21:03:27;51.38;;;29.55;;
44000;SDS011;29660;42.892;24.710;2024-01-27T21:08:49;39.92;;;24.17;;
44000;SDS011;29660;42.892;24.710;2024-01-27T21:14:11;14.55;;;8.52;;
44000;SDS011;29660;42.892;24.710;2024-01-27T21:19:34;18.20;;;11.43;;
44000;SDS011;29660;42.892;24.710;2024-01-27T21:25:02;18.38;;;11.85;;
44000;SDS011;29660;42.892;24.710;2024-01-27T21:30:25;19.67;;;11.93;;
44000;SDS011;29660;42.892;24.710;2024-01-27T21:35:47;11.77;;;6.43;;
44000;SDS011;29660;42.892;24.710;2024-01-27T21:41:10;16.00;;;9.93;;
44000;SDS011;29660;42.892;24.710;2024-01-27T21:46:32;8.27;;;5.88;;
44000;SDS011;29660;42.892;24.710;2024-01-27T21:51:54;20.95;;;10.45;;
44000;SDS011;29660;42.892;24.710;2024-01-27T21:57:16;10.70;;;5.68;;
44000;SDS011;29660;42.892;24.710;2024-01-27T22:02:38;8.07;;;4.78;;
44000;SDS011;29660;42.892;24.710;2024-01-27T22:08:02;9.57;;;5.60;;
44000;SDS011;29660;42.892;24.710;2024-01-27T22:13:27;7.05;;;5.78;;
44000;SDS011;29660;42.892;24.710;2024-01-27T22:18:49;6.97;;;3.83;;
44000;SDS011;29660;42.892;24.710;2024-01-27T22:24:12;17.02;;;10.07;;
44000;SDS011;29660;42.892;24.710;2024-01-27T22:29:36;9.07;;;5.53;;
44000;SDS011;29660;42.892;24.710;2024-01-27T22:34:58;14.65;;;9.25;;
44000;SDS011;29660;42.892;24.710;2024-01-27T22:40:20;16.15;;;10.10;;
44000;SDS011;29660;42.892;24.710;2024-01-27T22:45:42;19.55;;;10.35;;
44000;SDS011;29660;42.892;24.710;2024-01-27T22:51:05;27.52;;;15.40;;
44000;SDS011;29660;42.892;24.710;2024-01-27T22:56:27;28.40;;;17.33;;
44000;SDS011;29660;42.892;24.710;2024-01-27T23:01:49;30.77;;;22.02;;
44000;SDS011;29660;42.892;24.710;2024-01-27T23:07:11;19.10;;;12.00;;
44000;SDS011;29660;42.892;24.710;2024-01-27T23:12:33;14.38;;;7.60;;
44000;SDS011;29660;42.892;24.710;2024-01-27T23:17:56;25.83;;;14.13;;
44000;SDS011;29660;42.892;24.710;2024-01-27T23:23:18;13.20;;;6.57;;
44000;SDS011;29660;42.892;24.710;2024-01-27T23:28:41;21.08;;;12.68;;
44000;SDS011;29660;42.892;24.710;2024-01-27T23:34:05;12.50;;;6.03;;
44000;SDS011;29660;42.892;24.710;2024-01-27T23:39:29;13.10;;;6.95;;
44000;SDS011;29660;42.892;24.710;2024-01-27T23:44:51;8.85;;;4.47;;
44000;SDS011;29660;42.892;24.710;2024-01-27T23:50:32;9.45;;;5.32;;
44000;SDS011;29660;42.892;24.710;2024-01-27T23:55:54;7.75;;;3.15;;
